Time;durP1;ratioP1;P1;durP2;ratioP2;P2;SDS_P1;SDS_P2;PMS_P1;PMS_P2;Temp;Humidity;BMP_temperature;BMP_pressure;BME280_temperature;BME280_humidity;BME280_pressure;Samples;Min_cycle;Max_cycle;Signal;HPM_P1;HPM_P2
2023/05/29 00:00:34;;;;;;;9.93;6.25;;;;;;;;;;5049889;28;20021;-74
2023/05/29 00:03:01;;;;;;;9.52;5.97;;;;;;;;;;5037420;28;20028;-74
2023/05/29 00:05:27;;;;;;;10.55;6.47;;;;;;;;;;5046002;28;20050;-74
2023/05/29 00:07:53;;;;;;;7.80;5.63;;;;;;;;;;5043676;28;20114;-74
2023/05/29 00:10:19;;;;;;;9.63;5.88;;;;;;;;;;5036144;28;20049;-75
2023/05/29 00:12:45;;;;;;;9.07;5.70;;;;;;;;;;5043158;28;20577;-74
2023/05/29 00:15:12;;;;;;;11.48;6.28;;;;;;;;;;5046069;28;20061;-74
2023/05/29 00:17:40;;;;;;;9.88;5.72;;;;;;;;;;5043008;28;20037;-74
2023/05/29 00:20:09;;;;;;;9.48;6.18;;;;;;;;;;5045938;28;20017;-74
2023/05/29 00:22:39;;;;;;;6.43;4.97;;;;;;;;;;5036127;28;20036;-75
2023/05/29 00:25:06;;;;;;;6.90;5.15;;;;;;;;;;5048495;28;20036;-75
2023/05/29 00:27:34;;;;;;;9.27;6.00;;;;;;;;;;5022302;28;20054;-74
2023/05/29 00:30:01;;;;;;;9.18;5.68;;;;;;;;;;5040548;28;20029;-74
2023/05/29 00:32:27;;;;;;;9.77;5.57;;;;;;;;;;5048391;28;20540;-74
2023/05/29 00:34:54;;;;;;;9.13;5.55;;;;;;;;;;5036000;28;20025;-74
2023/05/29 00:37:21;;;;;;;9.73;5.70;;;;;;;;;;5044056;28;20079;-74
2023/05/29 00:39:47;;;;;;;8.50;5.22;;;;;;;;;;5042627;28;20068;-74
2023/05/29 00:42:13;;;;;;;9.15;5.50;;;;;;;;;;5036549;28;20017;-74
2023/05/29 00:44:39;;;;;;;9.40;5.63;;;;;;;;;;5030520;28;20029;-75
2023/05/29 00:47:06;;;;;;;11.18;5.47;;;;;;;;;;5034020;28;20047;-74
2023/05/29 00:49:32;;;;;;;7.60;5.43;;;;;;;;;;5025778;28;20034;-74
2023/05/29 00:51:58;;;;;;;9.52;5.55;;;;;;;;;;5044299;28;20027;-74
2023/05/29 00:54:27;;;;;;;9.43;5.47;;;;;;;;;;5036888;28;20029;-73
2023/05/29 00:56:53;;;;;;;10.00;6.65;;;;;;;;;;5048665;28;20033;-74
2023/05/29 00:59:21;;;;;;;10.30;5.75;;;;;;;;;;5032161;28;20053;-73
2023/05/29 01:01:48;;;;;;;8.02;5.82;;;;;;;;;;5024665;28;20114;-74
2023/05/29 01:04:16;;;;;;;10.05;5.50;;;;;;;;;;5051908;28;20044;-73
2023/05/29 01:06:42;;;;;;;8.77;5.80;;;;;;;;;;5035188;28;20033;-73
2023/05/29 01:09:08;;;;;;;9.00;5.22;;;;;;;;;;5036607;28;20032;-73
2023/05/29 01:11:46;;;;;;;6.85;5.03;;;;;;;;;;5043192;28;20034;-73
2023/05/29 01:14:18;;;;;;;7.85;5.50;;;;;;;;;;5045870;28;20025;-74
2023/05/29 01:17:02;;;;;;;9.23;5.20;;;;;;;;;;5056803;23;20030;-72
2023/05/29 01:19:38;;;;;;;7.55;4.72;;;;;;;;;;5009542;28;20053;-71
2023/05/29 01:22:10;;;;;;;6.22;4.65;;;;;;;;;;4997942;28;20022;-72
2023/05/29 01:24:42;;;;;;;9.40;5.47;;;;;;;;;;5007325;28;20400;-71
2023/05/29 01:27:14;;;;;;;8.20;5.35;;;;;;;;;;4991980;28;20050;-70
2023/05/29 01:29:42;;;;;;;7.85;4.93;;;;;;;;;;4983481;28;20019;-72
2023/05/29 01:32:08;;;;;;;9.63;5.78;;;;;;;;;;4985992;28;20130;-71
2023/05/29 01:34:34;;;;;;;13.93;6.03;;;;;;;;;;4976010;28;20077;-71
2023/05/29 01:37:00;;;;;;;13.27;5.75;;;;;;;;;;4987746;28;20026;-70
2023/05/29 01:39:27;;;;;;;10.57;5.68;;;;;;;;;;4979952;28;20022;-73
2023/05/29 01:41:53;;;;;;;8.07;5.43;;;;;;;;;;4963721;28;20023;-72
2023/05/29 01:44:20;;;;;;;6.68;4.82;;;;;;;;;;4969541;28;20050;-72
2023/05/29 01:46:46;;;;;;;9.65;5.22;;;;;;;;;;4975774;28;20038;-72
2023/05/29 01:49:13;;;;;;;9.95;5.03;;;;;;;;;;4985554;28;20031;-72
2023/05/29 01:51:40;;;;;;;5.75;4.55;;;;;;;;;;4981434;28;20488;-72
2023/05/29 01:54:06;;;;;;;9.57;4.78;;;;;;;;;;4979239;28;20027;-72
2023/05/29 01:56:33;;;;;;;7.57;5.20;;;;;;;;;;4990139;28;20113;-72
2023/05/29 01:59:01;;;;;;;8.10;4.78;;;;;;;;;;4977292;28;20023;-73
2023/05/29 02:01:27;;;;;;;5.88;4.40;;;;;;;;;;4985171;28;20022;-72
2023/05/29 02:03:53;;;;;;;9.00;4.65;;;;;;;;;;4965960;28;20022;-72
2023/05/29 02:06:19;;;;;;;8.73;5.32;;;;;;;;;;4977429;28;20030;-72
2023/05/29 02:08:46;;;;;;;7.82;4.47;;;;;;;;;;4970069;28;20094;-72
2023/05/29 02:11:12;;;;;;;6.50;4.57;;;;;;;;;;4977841;28;20022;-72
2023/05/29 02:13:38;;;;;;;6.05;4.07;;;;;;;;;;4983274;28;20026;-72
2023/05/29 02:16:04;;;;;;;8.55;5.55;;;;;;;;;;4967203;28;20030;-73
2023/05/29 02:18:31;;;;;;;8.48;4.40;;;;;;;;;;4957389;28;20178;-72
2023/05/29 02:20:57;;;;;;;10.77;5.32;;;;;;;;;;4988315;28;20019;-73
2023/05/29 02:23:23;;;;;;;10.20;4.93;;;;;;;;;;4961522;28;20026;-73
2023/05/29 02:25:49;;;;;;;6.32;4.53;;;;;;;;;;4981485;28;20358;-72
2023/05/29 02:28:15;;;;;;;8.18;4.90;;;;;;;;;;4966696;28;20023;-72
2023/05/29 02:30:41;;;;;;;7.22;4.85;;;;;;;;;;4975391;28;20058;-73
2023/05/29 02:33:07;;;;;;;6.88;4.60;;;;;;;;;;4986668;28;20536;-72
2023/05/29 02:35:33;;;;;;;9.30;5.03;;;;;;;;;;4962917;28;20030;-72
2023/05/29 02:37:59;;;;;;;10.40;4.82;;;;;;;;;;4961463;28;20078;-71
2023/05/29 02:40:25;;;;;;;6.93;4.50;;;;;;;;;;4987254;28;20027;-71
2023/05/29 02:42:51;;;;;;;9.15;4.88;;;;;;;;;;4975513;28;20073;-71
2023/05/29 02:45:17;;;;;;;8.50;4.70;;;;;;;;;;4985451;28;20027;-71
2023/05/29 02:47:43;;;;;;;8.00;4.65;;;;;;;;;;4981210;28;20034;-71
2023/05/29 02:50:09;;;;;;;7.70;4.47;;;;;;;;;;4979765;28;20034;-70
2023/05/29 02:52:39;;;;;;;8.25;4.30;;;;;;;;;;4988540;28;20022;-71
2023/05/29 02:55:06;;;;;;;7.22;4.35;;;;;;;;;;4976568;28;20164;-72
2023/05/29 02:57:32;;;;;;;5.90;4.20;;;;;;;;;;4982178;28;20027;-71
2023/05/29 02:59:59;;;;;;;5.45;4.15;;;;;;;;;;4983382;28;20680;-73
2023/05/29 03:02:25;;;;;;;6.18;4.45;;;;;;;;;;4975744;28;20031;-72
2023/05/29 03:04:52;;;;;;;8.32;4.85;;;;;;;;;;4987611;28;20039;-72
2023/05/29 03:07:18;;;;;;;8.23;4.50;;;;;;;;;;4980818;28;20034;-72
2023/05/29 03:09:44;;;;;;;5.47;4.22;;;;;;;;;;4985252;28;20038;-72
2023/05/29 03:12:11;;;;;;;8.55;4.68;;;;;;;;;;4988773;28;20026;-72
2023/05/29 03:14:37;;;;;;;6.18;4.72;;;;;;;;;;4961790;28;20081;-73
2023/05/29 03:17:07;;;;;;;7.28;4.30;;;;;;;;;;4990196;28;20038;-71
2023/05/29 03:19:33;;;;;;;8.07;4.80;;;;;;;;;;4966263;28;20022;-73
2023/05/29 03:21:59;;;;;;;10.50;5.00;;;;;;;;;;4983460;28;20031;-73
2023/05/29 03:24:25;;;;;;;10.82;4.43;;;;;;;;;;4990346;28;20145;-72
2023/05/29 03:26:51;;;;;;;7.45;4.70;;;;;;;;;;4978478;28;20038;-73
2023/05/29 03:29:17;;;;;;;7.45;4.35;;;;;;;;;;4986714;28;20035;-72
2023/05/29 03:31:43;;;;;;;6.45;4.50;;;;;;;;;;4984682;28;20088;-72
2023/05/29 03:34:09;;;;;;;8.27;4.82;;;;;;;;;;4964016;28;20035;-71
2023/05/29 03:36:38;;;;;;;9.45;5.03;;;;;;;;;;4973568;28;20022;-72
2023/05/29 03:39:04;;;;;;;7.03;4.50;;;;;;;;;;4978738;28;20520;-72
2023/05/29 03:41:30;;;;;;;7.90;4.50;;;;;;;;;;4986836;28;20512;-72
2023/05/29 03:43:56;;;;;;;7.13;5.50;;;;;;;;;;4986094;28;20453;-72
2023/05/29 03:46:22;;;;;;;8.48;5.15;;;;;;;;;;4979415;28;20026;-72
2023/05/29 03:48:48;;;;;;;5.57;4.32;;;;;;;;;;4990075;28;20036;-73
2023/05/29 03:51:15;;;;;;;5.80;4.43;;;;;;;;;;4980613;28;20026;-73
2023/05/29 03:53:41;;;;;;;6.50;4.13;;;;;;;;;;4985003;28;20440;-72
2023/05/29 03:56:07;;;;;;;6.50;3.97;;;;;;;;;;4987459;28;20081;-72
2023/05/29 03:58:33;;;;;;;7.03;4.70;;;;;;;;;;4976952;28;20077;-72
2023/05/29 04:00:59;;;;;;;9.32;3.83;;;;;;;;;;4990473;28;20022;-72
2023/05/29 04:03:25;;;;;;;6.88;4.82;;;;;;;;;;4981703;28;20052;-72
2023/05/29 04:05:51;;;;;;;7.32;4.28;;;;;;;;;;4993250;28;20029;-73
2023/05/29 04:08:17;;;;;;;5.90;3.50;;;;;;;;;;4979238;28;20409;-74
2023/05/29 04:10:44;;;;;;;5.80;3.80;;;;;;;;;;4975845;28;20041;-74
2023/05/29 04:13:10;;;;;;;4.35;3.22;;;;;;;;;;4971647;28;20489;-73
2023/05/29 04:15:36;;;;;;;4.60;3.47;;;;;;;;;;4978733;28;20034;-74
2023/05/29 04:18:02;;;;;;;4.72;3.28;;;;;;;;;;4987112;28;20036;-74
2023/05/29 04:20:28;;;;;;;6.07;3.40;;;;;;;;;;4959651;28;20110;-75
2023/05/29 04:22:54;;;;;;;4.15;3.20;;;;;;;;;;4989150;28;20031;-74
2023/05/29 04:25:20;;;;;;;4.75;3.22;;;;;;;;;;4980150;28;20026;-74
2023/05/29 04:27:48;;;;;;;5.68;3.33;;;;;;;;;;4961100;28;20035;-74
2023/05/29 04:30:15;;;;;;;4.50;3.60;;;;;;;;;;4982960;28;20029;-74
2023/05/29 04:32:41;;;;;;;5.80;3.33;;;;;;;;;;4960042;28;20118;-73
2023/05/29 04:35:07;;;;;;;5.15;3.45;;;;;;;;;;4987675;28;20389;-74
2023/05/29 04:37:38;;;;;;;4.25;3.03;;;;;;;;;;4980390;28;20076;-73
2023/05/29 04:40:13;;;;;;;6.07;3.22;;;;;;;;;;4979320;28;20022;-73
2023/05/29 04:42:42;;;;;;;4.40;3.38;;;24.50;33.90;;;;;;4977808;28;20030;-73
2023/05/29 04:45:10;;;;;;;5.00;3.17;;;24.70;34.00;;;;;;4978688;28;20102;-73
2023/05/29 04:47:42;;;;;;;4.28;3.10;;;25.20;33.70;;;;;;4983908;28;20057;-73
2023/05/29 04:50:10;;;;;;;4.60;3.25;;;25.40;32.30;;;;;;4986731;28;20456;-73
2023/05/29 04:52:37;;;;;;;6.05;3.25;;;25.50;32.90;;;;;;4959237;28;20548;-73
2023/05/29 04:55:03;;;;;;;4.47;2.88;;;26.00;31.50;;;;;;4993286;28;20029;-73
2023/05/29 04:57:29;;;;;;;4.68;3.00;;;26.20;31.50;;;;;;4984982;28;20023;-73
2023/05/29 04:59:54;;;;;;;4.68;2.88;;;26.30;31.60;;;;;;4993596;28;20026;-74
2023/05/29 05:02:20;;;;;;;5.10;2.67;;;27.10;29.60;;;;;;4981278;28;20022;-74
2023/05/29 05:04:45;;;;;;;4.25;2.50;;;27.10;30.30;;;;;;4991254;28;20023;-75
2023/05/29 05:07:11;;;;;;;7.80;3.15;;;28.00;29.00;;;;;;4978079;28;20054;-75
2023/05/29 05:09:37;;;;;;;5.65;2.88;;;27.90;28.60;;;;;;4966583;28;20035;-74
2023/05/29 05:12:03;;;;;;;4.35;2.60;;;27.80;28.80;;;;;;4985613;28;20026;-76
2023/05/29 05:14:28;;;;;;;5.63;2.88;;;27.70;29.20;;;;;;4959429;28;20037;-76
2023/05/29 05:16:54;;;;;;;2.90;2.58;;;28.30;28.40;;;;;;4989262;28;20023;-76
2023/05/29 05:19:20;;;;;;;5.18;2.78;;;28.50;28.30;;;;;;4979689;28;20432;-76
2023/05/29 05:21:46;;;;;;;3.30;2.90;;;28.70;27.50;;;;;;4982770;28;20026;-75
2023/05/29 05:24:11;;;;;;;4.63;3.05;;;29.10;27.70;;;;;;4986542;28;20507;-77
2023/05/29 05:26:37;;;;;;;3.63;2.50;;;29.90;26.60;;;;;;4976293;28;20035;-77
2023/05/29 05:29:03;;;;;;;3.67;3.15;;;29.80;26.70;;;;;;4987759;28;20065;-77
2023/05/29 05:31:28;;;;;;;6.43;2.88;;;30.00;26.50;;;;;;4981311;28;20065;-77
2023/05/29 05:33:54;;;;;;;7.72;3.00;;;30.50;25.80;;;;;;4981574;28;20077;-75
2023/05/29 05:36:20;;;;;;;7.10;3.25;;;30.90;25.10;;;;;;4986834;28;20101;-76
2023/05/29 05:38:45;;;;;;;7.57;3.28;;;31.40;24.80;;;;;;4975427;28;20054;-76
2023/05/29 05:41:11;;;;;;;5.53;3.28;;;31.50;24.60;;;;;;4987049;28;20019;-76
2023/05/29 05:43:37;;;;;;;3.67;2.78;;;31.90;24.20;;;;;;4982132;28;20027;-75
2023/05/29 05:46:02;;;;;;;7.03;3.00;;;32.20;23.70;;;;;;4980473;28;20031;-75
2023/05/29 05:48:28;;;;;;;5.63;3.13;;;32.70;23.30;;;;;;4987404;28;20041;-75
2023/05/29 05:50:53;;;;;;;4.50;2.75;;;32.80;23.40;;;;;;4972331;28;20034;-74
2023/05/29 05:53:20;;;;;;;5.57;3.13;;;;;;;;;;4984554;28;20026;-74
2023/05/29 05:55:46;;;;;;;4.80;3.35;;;32.60;23.40;;;;;;4981643;28;20233;-75
2023/05/29 05:58:12;;;;;;;4.03;3.00;;;33.00;22.50;;;;;;4976496;28;20034;-75
2023/05/29 06:00:39;;;;;;;6.50;3.17;;;32.50;23.80;;;;;;4986743;28;20034;-76
2023/05/29 06:03:04;;;;;;;7.47;4.05;;;32.90;23.10;;;;;;4958201;28;20489;-76
2023/05/29 06:05:30;;;;;;;4.18;3.50;;;33.40;22.70;;;;;;4966004;28;20027;-76
2023/05/29 06:07:56;;;;;;;4.72;3.53;;;33.60;22.40;;;;;;4982755;28;20030;-76
2023/05/29 06:10:21;;;;;;;4.60;3.53;;;34.00;21.60;;;;;;4976903;28;20077;-75
2023/05/29 06:12:47;;;;;;;8.95;4.38;;;34.20;21.60;;;;;;4990655;28;20392;-77
2023/05/29 06:15:13;;;;;;;8.70;3.50;;;33.70;21.40;;;;;;4990971;28;20034;-77
2023/05/29 06:17:39;;;;;;;7.53;3.97;;;33.50;22.00;;;;;;4990164;28;20492;-77
2023/05/29 06:20:10;;;;;;;5.50;4.07;;;33.50;22.20;;;;;;4991693;28;20081;-77
2023/05/29 06:22:36;;;;;;;5.15;3.97;;;34.20;21.50;;;;;;4990936;28;20045;-77
2023/05/29 06:25:01;;;;;;;8.98;4.40;;;33.60;21.90;;;;;;4973275;28;20477;-76
2023/05/29 06:27:27;;;;;;;7.30;4.57;;;34.10;21.20;;;;;;4990754;28;20039;-76
2023/05/29 06:29:52;;;;;;;5.90;4.00;;;34.70;21.20;;;;;;4991676;28;20061;-77
2023/05/29 06:32:18;;;;;;;6.47;3.85;;;34.10;21.40;;;;;;4991676;28;20064;-77
2023/05/29 06:34:44;;;;;;;5.38;4.13;;;34.20;21.50;;;;;;4991940;28;20144;-77
2023/05/29 06:37:09;;;;;;;5.38;3.83;;;35.40;20.20;;;;;;4991193;28;20030;-77
2023/05/29 06:39:35;;;;;;;6.20;4.07;;;35.80;20.20;;;;;;4992065;28;20026;-77
2023/05/29 06:42:01;;;;;;;5.28;3.42;;;36.20;19.50;;;;;;4978239;28;20027;-76
2023/05/29 06:44:27;;;;;;;5.20;3.92;;;37.00;19.20;;;;;;4978752;28;20026;-77
2023/05/29 06:46:52;;;;;;;5.72;3.13;;;35.90;19.60;;;;;;4995850;28;20026;-76
2023/05/29 06:49:18;;;;;;;3.47;3.08;;;35.90;19.50;;;;;;4996054;28;20535;-77
2023/05/29 06:51:46;;;;;;;3.67;3.25;;;34.10;20.70;;;;;;4996221;28;20495;-76
2023/05/29 06:54:16;;;;;;;5.95;3.60;;;33.60;21.60;;;;;;4978419;28;20023;-76
2023/05/29 06:56:41;;;;;;;4.50;3.53;;;32.70;22.00;;;;;;4978477;28;20030;-76
2023/05/29 06:59:07;;;;;;;4.82;3.47;;;33.40;21.40;;;;;;4995527;28;20572;-77
2023/05/29 07:01:33;;;;;;;7.68;3.08;;;34.50;20.80;;;;;;4996137;28;20034;-77
2023/05/29 07:03:58;;;;;;;6.32;3.70;;;35.50;19.70;;;;;;4995822;28;20022;-77
2023/05/29 07:06:24;;;;;;;6.63;3.95;;;;;;;;;;4995710;28;20048;-76
2023/05/29 07:08:50;;;;;;;5.68;3.80;;;31.50;23.60;;;;;;4994907;28;20046;-75
2023/05/29 07:11:16;;;;;;;5.95;3.65;;;31.80;23.50;;;;;;4977989;28;20068;-76
2023/05/29 07:13:41;;;;;;;7.10;4.10;;;31.50;22.90;;;;;;4978566;28;20022;-77
2023/05/29 07:16:07;;;;;;;4.60;3.40;;;31.90;23.10;;;;;;4996325;28;20105;-77
2023/05/29 07:18:33;;;;;;;5.35;3.83;;;32.90;22.30;;;;;;5043406;22;20507;-75
2023/05/29 07:21:00;;;;;;;6.63;3.20;;;34.20;21.50;;;;;;5054590;28;20498;-75
2023/05/29 07:23:26;;;;;;;5.95;3.75;;;34.90;20.50;;;;;;5036589;28;20120;-76
2023/05/29 07:25:51;;;;;;;9.18;3.95;;;34.60;21.00;;;;;;5036358;28;20120;-76
2023/05/29 07:28:17;;;;;;;4.88;3.65;;;33.90;21.90;;;;;;5053326;28;20028;-76
2023/05/29 07:30:44;;;;;;;6.38;3.67;;;34.30;21.10;;;;;;5052710;28;20029;-76
2023/05/29 07:33:10;;;;;;;5.00;3.92;;;32.30;22.70;;;;;;5054400;28;20029;-76
2023/05/29 07:35:36;;;;;;;5.63;3.22;;;32.00;23.60;;;;;;5054114;28;20087;-76
2023/05/29 07:38:01;;;;;;;4.80;3.95;;;32.90;23.40;;;;;;5053094;28;20503;-76
2023/05/29 07:40:27;;;;;;;4.93;3.00;;;34.40;22.10;;;;;;5054092;28;20021;-76
2023/05/29 07:42:53;;;;;;;4.95;3.50;;;34.90;21.40;;;;;;5053932;28;20047;-76
2023/05/29 07:45:18;;;;;;;8.57;3.55;;;35.80;20.00;;;;;;5054292;28;20041;-76
2023/05/29 07:47:44;;;;;;;4.55;3.60;;;;;;;;;;5035171;28;20029;-75
2023/05/29 07:50:10;;;;;;;6.82;3.67;;;;;;;;;;5053712;28;20143;-76
2023/05/29 07:52:36;;;;;;;4.95;3.70;;;30.20;25.50;;;;;;5053419;28;20021;-75
2023/05/29 07:55:02;;;;;;;8.00;3.40;;;31.00;25.00;;;;;;5052244;28;20556;-76
2023/05/29 07:57:28;;;;;;;7.18;3.65;;;32.50;23.20;;;;;;5053119;28;20606;-74
2023/05/29 07:59:54;;;;;;;6.03;3.80;;;33.40;22.60;;;;;;5036852;28;20028;-77
2023/05/29 08:02:20;;;;;;;6.28;3.35;;;34.50;21.50;;;;;;5036588;28;20025;-76
2023/05/29 08:04:46;;;;;;;5.40;3.20;;;;;;;;;;5053577;28;20033;-75
2023/05/29 08:07:12;;;;;;;5.32;3.50;;;33.90;21.30;;;;;;5034933;28;20025;-76
2023/05/29 08:09:38;;;;;;;5.32;3.15;;;33.70;21.40;;;;;;5053738;28;20391;-76
2023/05/29 08:12:05;;;;;;;7.05;3.42;;;32.70;23.00;;;;;;5053516;28;20025;-76
2023/05/29 08:14:31;;;;;;;7.00;3.15;;;33.10;22.40;;;;;;5053583;28;20576;-76
2023/05/29 08:16:56;;;;;;;8.05;3.70;;;33.50;22.10;;;;;;5054104;28;20032;-77
2023/05/29 08:19:23;;;;;;;4.93;3.50;;;33.90;22.30;;;;;;5052852;28;20037;-77
2023/05/29 08:21:49;;;;;;;4.80;3.22;;;34.60;21.80;;;;;;5054400;28;20033;-76
2023/05/29 08:24:14;;;;;;;5.40;3.17;;;35.10;21.50;;;;;;5054673;28;20075;-76
2023/05/29 08:26:40;;;;;;;7.90;3.38;;;35.70;20.90;;;;;;5053445;28;20025;-77
2023/05/29 08:29:06;;;;;;;8.48;3.50;;;35.40;20.10;;;;;;5053080;28;20055;-76
2023/05/29 08:31:32;;;;;;;3.90;3.15;;;34.40;21.10;;;;;;5054522;28;20029;-76
2023/05/29 08:33:57;;;;;;;8.63;3.55;;;32.30;22.90;;;;;;5035483;28;20372;-77
2023/05/29 08:36:23;;;;;;;5.97;3.80;;;;;;;;;;5035815;28;20021;-76
2023/05/29 08:38:50;;;;;;;8.73;3.78;;;;;;;;;;5052263;28;20100;-75
2023/05/29 08:41:26;;;;;;;7.82;3.80;;;30.30;26.70;;;;;;5053109;28;20025;-76
2023/05/29 08:43:53;;;;;;;7.40;4.03;;;;;;;;;;5052866;28;20017;-76
2023/05/29 08:46:21;;;;;;;7.43;4.18;;;29.00;26.50;;;;;;5034783;28;20064;-76
2023/05/29 08:48:49;;;;;;;6.43;4.10;;;29.00;27.30;;;;;;5052057;28;20446;-76
2023/05/29 08:51:20;;;;;;;5.55;3.58;;;30.00;26.80;;;;;;5052964;28;20100;-76
2023/05/29 08:53:46;;;;;;;4.95;3.38;;;30.50;26.00;;;;;;5053088;28;20013;-76
2023/05/29 08:56:12;;;;;;;6.22;3.90;;;30.50;25.20;;;;;;5052974;28;20025;-76
2023/05/29 08:58:38;;;;;;;7.07;3.38;;;30.90;25.30;;;;;;5051661;28;20075;-76
2023/05/29 09:01:04;;;;;;;6.97;3.22;;;31.20;24.30;;;;;;5052986;28;20029;-76
2023/05/29 09:03:29;;;;;;;7.85;2.83;;;30.60;23.30;;;;;;5034126;28;20025;-76
2023/05/29 09:05:59;;;;;;;4.40;2.83;;;30.90;22.90;;;;;;5052716;28;20048;-76
2023/05/29 09:08:28;;;;;;;5.90;3.10;;;31.50;21.90;;;;;;5051629;28;20043;-76
2023/05/29 09:10:54;;;;;;;7.57;3.15;;;31.10;23.40;;;;;;5051483;28;20827;-76
2023/05/29 09:13:20;;;;;;;5.53;2.70;;;31.70;22.70;;;;;;5053041;28;20021;-76
2023/05/29 09:15:46;;;;;;;6.65;3.15;;;31.70;23.80;;;;;;5049592;28;20402;-76
2023/05/29 09:18:12;;;;;;;6.22;3.08;;;32.00;21.80;;;;;;5052012;28;20037;-77
2023/05/29 09:20:38;;;;;;;4.57;3.00;;;32.40;22.80;;;;;;5053834;28;20501;-76
2023/05/29 09:23:05;;;;;;;4.97;2.75;;;31.70;22.00;;;;;;5034662;28;20024;-75
2023/05/29 09:25:33;;;;;;;4.72;2.72;;;30.60;23.10;;;;;;5052515;28;20041;-76
2023/05/29 09:28:02;;;;;;;6.85;2.53;;;29.70;23.50;;;;;;5051615;28;20111;-76
2023/05/29 09:30:49;;;;;;;9.73;3.10;;;29.60;24.80;;;;;;5051963;28;20029;-76
2023/05/29 09:33:16;;;;;;;3.88;2.75;;;29.50;25.00;;;;;;5051027;28;20074;-75
2023/05/29 09:35:47;;;;;;;5.03;2.60;;;29.80;25.90;;;;;;5051423;28;20398;-75
2023/05/29 09:38:15;;;;;;;5.07;2.92;;;30.30;25.40;;;;;;5050261;28;20021;-76
2023/05/29 09:40:41;;;;;;;5.18;2.40;;;30.80;23.70;;;;;;5051483;28;20104;-76
2023/05/29 09:43:11;;;;;;;7.30;2.42;;;31.00;23.70;;;;;;5051615;28;20083;-76
2023/05/29 09:45:38;;;;;;;4.78;2.33;;;31.10;23.20;;;;;;5051337;28;20071;-76
2023/05/29 09:48:11;;;;;;;4.78;2.47;;;30.70;24.00;;;;;;5030161;28;20027;-76
2023/05/29 09:50:37;;;;;;;7.00;2.90;;;30.60;23.30;;;;;;5050553;28;20074;-76
2023/05/29 09:53:03;;;;;;;4.18;2.63;;;30.00;24.00;;;;;;5050173;28;20434;-76
2023/05/29 09:55:31;;;;;;;3.08;2.55;;;29.60;25.50;;;;;;5052223;28;20075;-77
2023/05/29 09:57:58;;;;;;;4.28;2.10;;;29.90;25.10;;;;;;5053608;28;20036;-77
2023/05/29 10:00:24;;;;;;;8.00;2.78;;;;;;;;;;5048682;28;20507;-77
2023/05/29 10:02:50;;;;;;;4.95;2.65;;;;;;;;;;5049609;28;20541;-77
2023/05/29 10:05:16;;;;;;;7.32;2.58;;;;;;;;;;5049649;28;20372;-77
2023/05/29 10:07:48;;;;;;;5.32;2.40;;;;;;;;;;5030961;28;20044;-78
2023/05/29 10:10:14;;;;;;;7.20;2.92;;;;;;;;;;5050476;28;20020;-77
2023/05/29 10:12:44;;;;;;;5.60;2.63;;;;;;;;;;5048727;28;20494;-77
2023/05/29 10:15:14;;;;;;;5.43;2.67;;;;;;;;;;5049458;28;20025;-76
2023/05/29 10:17:45;;;;;;;4.53;2.60;;;;;;;;;;5050640;28;20475;-76
2023/05/29 10:20:15;;;;;;;7.35;3.53;;;;;;;;;;5051210;28;20550;-76
2023/05/29 10:22:45;;;;;;;4.07;2.45;;;;;;;;;;5050995;28;20506;-76
2023/05/29 10:25:14;;;;;;;5.30;2.65;;;;;;;;;;5032285;28;20060;-76
2023/05/29 10:27:40;;;;;;;8.10;3.80;;;;;;;;;;5032371;28;20079;-77
2023/05/29 10:30:12;;;;;;;9.07;3.00;;;;;;;;;;5050483;28;20029;-77
2023/05/29 10:33:00;;;;;;;4.63;3.03;;;;;;;;;;5049237;28;20071;-76
2023/05/29 10:35:41;;;;;;;4.07;2.88;;;;;;;;;;5049409;28;20029;-77
2023/05/29 10:38:12;;;;;;;5.35;2.70;;;;;;;;;;5032111;28;20136;-76
2023/05/29 10:40:38;;;;;;;;;;;;;;;;;;5049804;28;20029;-77
2023/05/29 10:43:08;;;;;;;4.47;3.03;;;;;;;;;;5049268;28;19905;-77
2023/05/29 10:45:40;;;;;;;6.10;2.80;;;;;;;;;;5049330;28;20018;-77
2023/05/29 10:48:12;;;;;;;8.35;3.00;;;;;;;;;;5048310;28;20387;-76
2023/05/29 10:50:39;;;;;;;7.47;3.10;;;;;;;;;;5031392;28;20441;-76
2023/05/29 10:53:11;;;;;;;9.73;2.97;;;;;;;;;;5049303;28;20029;-76
2023/05/29 10:55:38;;;;;;;7.03;2.63;;;;;;;;;;5051075;28;20430;-76
2023/05/29 10:58:07;;;;;;;7.93;3.20;;;;;;;;;;5050189;28;20025;-76
2023/05/29 11:00:34;;;;;;;5.82;3.00;;;;;;;;;;5051069;28;20031;-76
2023/05/29 11:03:04;;;;;;;6.35;3.10;;;;;;;;;;5033099;28;20146;-77
2023/05/29 11:05:30;;;;;;;9.00;2.67;;;;;;;;;;5050365;28;20101;-76
2023/05/29 11:07:58;;;;;;;6.70;2.95;;;;;;;;;;5048247;28;20032;-75
2023/05/29 11:10:46;;;;;;;4.85;2.85;;;;;;;;;;5050814;28;20025;-76
2023/05/29 11:13:24;;;;;;;6.22;3.13;;;;;;;;;;5050777;28;20084;-77
2023/05/29 11:16:04;;;;;;;5.50;2.97;;;;;;;;;;5050583;28;20515;-77
2023/05/29 11:18:30;;;;;;;5.28;3.00;;;;;;;;;;5050165;28;20041;-76
2023/05/29 11:21:05;;;;;;;7.05;2.60;;;;;;;;;;5053061;28;20086;-75
2023/05/29 11:23:32;;;;;;;6.45;2.85;;;;;;;;;;5038435;28;20028;-75
2023/05/29 11:26:00;;;;;;;10.50;2.72;;;;;;;;;;5039711;28;20032;-76
2023/05/29 11:28:28;;;;;;;2.72;2.40;;;;;;;;;;5062326;28;20029;-75
2023/05/29 11:30:56;;;;;;;5.05;3.10;;;;;;;;;;5061334;28;20037;-76
2023/05/29 11:33:26;;;;;;;7.97;3.05;;;;;;;;;;5056377;28;20074;-76
2023/05/29 11:35:57;;;;;;;5.93;2.95;;;;;;;;;;5054425;28;20495;-76
2023/05/29 11:38:24;;;;;;;6.30;3.13;;;;;;;;;;5049941;28;20147;-76
2023/05/29 11:40:50;;;;;;;6.35;2.95;;;;;;;;;;5053870;28;20032;-76
2023/05/29 11:43:16;;;;;;;7.70;3.20;;;;;;;;;;5036578;28;20036;-75
2023/05/29 11:45:42;;;;;;;6.15;2.95;;;;;;;;;;5032812;28;20029;-76
2023/05/29 11:48:08;;;;;;;6.63;3.08;;;;;;;;;;5048257;28;20033;-76
2023/05/29 11:50:34;;;;;;;6.18;2.92;;;;;;;;;;5052898;28;20028;-76
2023/05/29 11:53:01;;;;;;;4.50;3.08;;;;;;;;;;5035943;28;20048;-75
2023/05/29 11:55:27;;;;;;;8.57;3.63;;;;;;;;;;5054000;28;20119;-76
2023/05/29 11:57:58;;;;;;;6.35;3.20;;;;;;;;;;5052818;28;20025;-76
2023/05/29 12:00:24;;;;;;;8.95;4.90;;;;;;;;;;5053712;28;20025;-76
2023/05/29 12:02:51;;;;;;;8.70;3.50;;;;;;;;;;5039783;28;20029;-76
2023/05/29 12:05:21;;;;;;;8.70;3.50;;;;;;;;;;5033646;28;20021;-76
2023/05/29 12:07:57;;;;;;;6.95;2.85;;;;;;;;;;5033241;28;20430;-76
2023/05/29 12:10:24;;;;;;;3.55;3.00;;;;;;;;;;5033784;28;20029;-76
2023/05/29 12:12:54;;;;;;;4.80;2.60;;;;;;;;;;5015714;28;20063;-76
2023/05/29 12:15:21;;;;;;;5.87;3.07;;;;;;;;;;5033602;28;20408;-76
2023/05/29 12:17:47;;;;;;;3.58;2.65;;;;;;;;;;5032396;28;20022;-76
2023/05/29 12:20:14;;;;;;;4.25;2.90;;;;;;;;;;5052194;28;20024;-76
2023/05/29 12:22:41;;;;;;;6.78;2.97;;;;;;;;;;5053524;28;20498;-77
2023/05/29 12:25:11;;;;;;;7.72;2.78;;;;;;;;;;5053403;28;20502;-77
2023/05/29 12:27:42;;;;;;;7.97;2.67;;;;;;;;;;5034845;28;20063;-76
2023/05/29 12:30:10;;;;;;;5.35;3.10;;;;;;;;;;5053772;28;20225;-76
2023/05/29 12:32:40;;;;;;;6.22;2.97;;;;;;;;;;5035480;28;20055;-76
2023/05/29 12:35:15;;;;;;;7.10;2.70;;;;;;;;;;5053709;28;20048;-76
2023/05/29 12:37:54;;;;;;;4.72;3.00;;;;;;;;;;5052616;28;20025;-76
2023/05/29 12:40:24;;;;;;;4.45;2.60;;;;;;;;;;5053442;28;20029;-76
2023/05/29 12:42:55;;;;;;;4.35;2.55;;;;;;;;;;5035588;28;20021;-77
2023/05/29 12:45:22;;;;;;;6.40;3.03;;;;;;;;;;5053425;28;20024;-77
2023/05/29 12:47:52;;;;;;;4.28;2.75;;;;;;;;;;5034452;28;20033;-77
2023/05/29 12:50:21;;;;;;;6.27;3.30;;;;;;;;;;5035070;28;20069;-77
2023/05/29 12:53:04;;;;;;;5.82;2.90;;;;;;;;;;5015858;28;20025;-76
2023/05/29 12:55:36;;;;;;;5.18;2.90;;;;;;;;;;5032947;28;20104;-76
2023/05/29 12:58:03;;;;;;;8.00;2.60;;;;;;;;;;5032005;28;20018;-76
2023/05/29 13:00:30;;;;;;;5.43;3.10;;;;;;;;;;5032825;28;20037;-76
2023/05/29 13:02:56;;;;;;;5.22;2.95;;;;;;;;;;5015119;28;20071;-76
2023/05/29 13:05:22;;;;;;;7.57;3.08;;;;;;;;;;5047553;28;20033;-76
2023/05/29 13:07:50;;;;;;;6.40;2.95;;;;;;;;;;5051728;28;20036;-76
2023/05/29 13:10:16;;;;;;;7.35;3.35;;;;;;;;;;5052406;28;20032;-76
2023/05/29 13:12:42;;;;;;;7.43;3.17;;;;;;;;;;5052465;28;20021;-76
2023/05/29 13:15:08;;;;;;;3.85;2.90;;;;;;;;;;5052465;28;20037;-76
2023/05/29 13:20:09;;;;;;;5.50;2.83;;;;;;;;;;5048399;28;20068;-74
2023/05/29 13:22:35;;;;;;;5.00;2.78;;;;;;;;;;5052487;28;20040;-74
2023/05/29 13:25:02;;;;;;;6.80;3.03;;;;;;;;;;5050534;28;20017;-74
2023/05/29 13:27:28;;;;;;;3.78;2.80;;;;;;;;;;5049890;28;20035;-74
2023/05/29 13:29:54;;;;;;;6.47;2.80;;;;;;;;;;5033004;28;20029;-74
2023/05/29 13:32:20;;;;;;;3.05;2.58;;;;;;;;;;5051262;28;20045;-74
2023/05/29 13:34:47;;;;;;;5.75;3.10;;;;;;;;;;5051765;28;20036;-74
2023/05/29 13:37:13;;;;;;;4.65;2.55;;;;;;;;;;5051242;28;20071;-75
2023/05/29 13:39:39;;;;;;;3.58;2.83;;;;;;;;;;5052439;28;20025;-74
2023/05/29 13:42:06;;;;;;;5.13;3.10;;;;;;;;;;5034577;28;20044;-74
2023/05/29 13:44:32;;;;;;;8.90;3.00;;;;;;;;;;5052996;28;20018;-75
2023/05/29 13:46:58;;;;;;;5.57;3.28;;;;;;;;;;5052212;28;20033;-73
2023/05/29 13:49:24;;;;;;;6.10;3.38;;;;;;;;;;5051082;28;20087;-74
2023/05/29 13:51:50;;;;;;;5.45;3.03;;;;;;;;;;5051792;28;20395;-74
2023/05/29 13:54:17;;;;;;;5.93;3.15;;;;;;;;;;5051653;28;20040;-74
2023/05/29 13:56:43;;;;;;;8.95;3.50;;;;;;;;;;5052058;28;20025;-74
2023/05/29 13:59:09;;;;;;;5.85;3.40;;;;;;;;;;5051104;28;20466;-74